x

Cape San Martin - 55nm West Nw Of Morro Bay, Ca (46028) Wave Buoy

6:50pm - Wed 27th Aug 2014 All times are PDT. -7 hours from GMT.

  • Sig Wave height 7.9ft
  • Swell Direction
  • Peak Period 14s
  • Average Period 11s
  • Wind
    9mph, 13mph gusts
  • Sea Temp 66°f
  • Air Temp 64°f
  • Sea Pressure 1016.7mb
  • Cape San Martin - 55nm West Nw Of Morro Bay, Ca
  • Cape San Martin - 55nm West Nw Of Morro Bay, Ca

More Historic Weather Station data

Upgrade to MSW Pro to gain access to the past 30 days of data for over 8000 Wavebouys and Weather Stations around the globe.

Join Pro

Comparision Forecast

View Surf forecast
   
Wed 08/27 6:50pm 8ft 14s 11s 9 13 mph 1016.7mb 66f 64f
5:50pm 9ft 14s 11s 11 13 mph 1017mb 66f 64f
4:50pm 7.5ft 15s 11s 9 11 mph 1016.9mb 67f 64f
3:50pm 8.5ft 14s 11s 9 11 mph 1017mb 67f 64f
2:50pm 8ft 15s 11s 7 11 mph 1017.5mb 67f 64f
1:50pm 9ft 15s 12s 7 11 mph 1017.7mb 66f 64f
12:50pm 10ft 15s 12s 4 9 mph 1018mb 66f 63f
11:50am 8ft 15s 11s 7 11 mph 1018.1mb 65f 63f
10:50am 8ft 15s 11s 7 9 mph 1018.2mb 65f 63f
9:50am  -   -   -  9 11 mph 1017.5mb 65f 63f
8:50am 8.5ft 16s 10s 9 11 mph 1017.3mb 65f 63f
7:50am  -   -   -  9
mph
- - -
6:50am  -   -   -  9
mph
- - -
5:50am 9ft 16s 11s 9 13 mph 1016.2mb 65f 63f
4:50am 7.5ft 16s 10s 9 11 mph 1016mb 65f 63f
3:50am 6.5ft 14s 10s 9 11 mph 1015.9mb 65f 63f
2:50am 8ft 16s 11s 9 11 mph 1015.9mb 65f 64f
1:50am 7.5ft 16s 10s 9 11 mph 1016mb 65f 64f
12:50am  -   -   -  9 13 mph 1016.1mb 65f 64f
Tue 08/26 11:50pm 7.5ft 16s 11s 9 11 mph 1015.8mb 65f 64f
10:50pm 6.5ft 15s 9s 9 13 mph 1015.8mb 65f 64f
9:50pm 7.5ft 14s 9s 11 13 mph 1015.6mb 65f 64f
8:50pm 7ft 13s 9s 11 13 mph 1015.3mb 65f 64f
7:50pm 6ft 14s 9s 11 13 mph 1014.9mb 66f 64f
6:50pm 6.5ft 9s 9s 11 13 mph 1014.6mb 66f 64f
5:50pm 6ft 14s 9s 9 11 mph 1014.7mb 66f 64f
4:50pm 6.5ft 13s 9s 9 11 mph 1014.8mb 65f 64f
3:50pm 5.5ft 14s 9s 9 11 mph 1015.1mb 65f 63f
2:50pm 6ft 14s 9s 9 11 mph 1015.4mb 65f 63f
1:50pm 5.5ft 13s 9s 9 11 mph 1015.8mb 65f 63f
12:50pm 5.5ft 14s 9s 11
mph
1015.9mb 65f 63f
11:50am 5.5ft 14s 9s 9 11 mph 1016.1mb 65f 63f
10:50am  -   -   -  9 11 mph 1016.2mb 65f 63f
9:50am 5ft 14s 8s 7 9 mph 1016.2mb 64f 63f
8:50am  -   -   -  7 9 mph 1015.9mb 65f 63f
7:50am 5ft 8s 8s 4 7 mph 1015.5mb 65f 63f
6:50am  -   -   -  7
mph
1014.9mb 64f 63f
5:50am 5ft 8s 8s 9
mph
1014.4mb 64f 63f
4:50am 5ft 8s 8s 7 9 mph 1014.1mb 64f 63f
3:50am 5ft 13s 8s 7 9 mph 1014.2mb 65f 63f
2:50am 5ft 13s 8s 4 7 mph 1014mb 64f 64f
1:50am 5ft 8s 8s 4 7 mph 1014.2mb 64f 64f
12:50am 5ft 8s 8s 4
mph
1014.2mb 65f 63f
Mon 08/25 11:50pm 5ft 8s 8s 2 4 mph 1014.3mb 65f 64f
10:50pm 5ft 8s 8s 4 7 mph 1014.2mb 65f 64f
9:50pm 5ft 13s 8s 4
mph
1013.8mb 65f 64f
8:50pm 5ft 8s 8s 2 4 mph 1013.3mb 65f 64f
7:50pm  -   -   -  4
mph
1012.9mb 66f 64f
6:50pm 5ft 9s 8s 2
mph
1012.6mb 66f 65f
5:50pm 5ft 9s 8s 7 9 mph 1012.1mb 66f 64f
4:50pm 5.5ft 9s 8s 4 7 mph 1012.4mb 66f 64f
3:50pm 5ft 9s 8s 4 7 mph 1012.5mb 67f 64f
2:50pm 5ft 9s 8s 2 4 mph 1012.8mb 66f 64f
1:50pm 5ft 9s 8s 2 4 mph 1012.9mb 65f 64f
12:50pm 5.5ft 9s 9s 2
mph
1013.3mb 65f 65f
11:50am 6ft 9s 9s 2 4 mph 1013.1mb 65f 64f
10:50am 6ft 10s 9s 4 7 mph 1012.9mb 65f 64f
9:50am 5.5ft 9s 8s 4 7 mph 1012.7mb 64f 63f
8:50am 5.5ft 9s 9s 2 4 mph 1012.2mb 65f 63f
7:50am 6ft 9s 9s 2 4 mph 1012.2mb 65f 63f
6:50am 5.5ft 9s 8s 4 9 mph 1011.8mb 65f 63f
5:50am 6ft 8s 8s 7 9 mph 1011.3mb 65f 63f
4:50am 6ft 8s 8s 4 7 mph 1011.4mb 65f 63f
3:50am 6ft 9s 8s 4 9 mph 1011.4mb 65f 63f
2:50am 5.5ft 8s 8s 2 4 mph 1011.8mb 65f 63f
1:50am 5.5ft 8s 8s 2
mph
1012mb 65f 64f
12:50am 6ft 9s 8s 2 4 mph 1012.1mb 65f 64f
Sun 08/24 11:50pm 5ft 9s 8s  -  2 mph 1011.9mb 65f 64f
10:50pm 6ft 8s 8s 2 4 mph 1011.9mb 66f 64f
9:50pm 6ft 10s 8s  -  2 mph 1011.8mb 66f 64f
8:50pm 6ft 8s 8s 2 4 mph 1011.5mb 66f 64f
7:50pm 5.5ft 9s 8s 2 4 mph 1010.9mb 66f 64f
6:50pm 6.5ft 8s 9s 2 4 mph 1010.7mb 67f 65f
5:50pm 6ft 8s 9s 2 4 mph 1011mb 67f 64f
4:50pm 6.5ft 9s 8s 2 4 mph 1011.2mb 66f 64f
3:50pm 5.5ft 11s 8s 2 4 mph 1011.5mb 66f 64f
2:50pm 5ft 10s 8s 4
mph
1011.7mb 65f 64f
1:50pm 5.5ft 9s 8s  -  2 mph 1012.2mb 65f 64f
12:50pm 5.5ft 9s 8s 2
mph
1012.5mb 65f 63f
11:50am 6ft 11s 8s 2 4 mph 1012.8mb 64f 62f
10:50am 5.5ft 11s 8s 4
mph
1013mb 64f 62f
9:50am 6ft 11s 9s 7
mph
1012.8mb 64f 62f
8:50am 6ft 11s 9s 7 9 mph 1012.5mb 64f 62f
7:50am 6ft 11s 9s 9 13 mph 1012.3mb 65f 63f
6:50am 6ft 11s 8s 4 7 mph 1012.2mb 65f 63f
5:50am 6ft 11s 8s 7 9 mph 1011.9mb 65f 63f
4:50am 6ft 11s 8s  -  4 mph 1011.8mb 65f 62f
3:50am 7ft 8s 8s 4 7 mph 1011.6mb 65f 62f
2:50am  -   -   -  4 7 mph 1011.7mb 64f 63f